Time;durP1;ratioP1;P1;durP2;ratioP2;P2;SDS_P1;SDS_P2;PMS_P1;PMS_P2;Temp;Humidity;BMP_temperature;BMP_pressure;BME280_temperature;BME280_humidity;BME280_pressure;Samples;Min_cycle;Max_cycle;Signal;HPM_P1;HPM_P2
2023/04/12 00:01:26;;;;;;;;;;;;;;;;;;4993246;28;19926;-82
2023/04/12 00:03:53;;;;;;;;;;;;;;;;;;4992200;28;19936;-82
2023/04/12 00:06:30;;;;;;;;;;;;;;;;;;4997940;28;19930;-83
2023/04/12 00:08:58;;;;;;;;;;;;;;;;;;5013223;28;19926;-82
2023/04/12 00:11:27;;;;;;;;;;;;;;;;;;4998031;28;20386;-82
2023/04/12 00:13:59;;;;;;;;;;;;;;;;;;4996070;28;20362;-82
2023/04/12 00:16:27;;;;;;;;;;;;;;;;;;4994759;28;19955;-81
2023/04/12 00:19:00;;;;;;;;;;;;;;;;;;5006230;28;20406;-82
2023/04/12 00:21:28;;;;;;;;;;;;;;;;;;4996424;28;19933;-82
2023/04/12 00:24:01;;;;;;;;;;;;;;;;;;5010702;28;20010;-82
2023/04/12 00:26:33;;;;;;;;;;;;;;;;;;5005681;28;19933;-83
2023/04/12 00:29:01;;;;;;;;;;;;;;;;;;4996430;28;19926;-82
2023/04/12 00:31:28;;;;;;;;;;;;;;;;;;5012623;28;19933;-81
2023/04/12 00:33:56;;;;;;;;;;;;;;;;;;4996721;28;20294;-82
2023/04/12 00:36:23;;;;;;;;;;;;;;;;;;4993177;28;20275;-82
2023/04/12 00:38:56;;;;;;;;;;;;;;;;;;5011349;28;20434;-82
2023/04/12 00:41:24;;;;;;;;;;;;;;;;;;5003952;28;19937;-82
2023/04/12 00:43:51;;;;;;;;;;;;;;;;;;4992958;28;19930;-82
2023/04/12 00:46:24;;;;;;;;;;;;;;;;;;4989355;28;19937;-82
2023/04/12 00:48:56;;;;;;;;;;;;;;;;;;5012198;28;20814;-83
2023/04/12 00:51:32;;;;;;;;;;;;;;;;;;5007689;28;19926;-82
2023/04/12 00:54:00;;;;;;;;;;;;;;;;;;5008342;28;19926;-82
2023/04/12 00:56:27;;;;;;;;;;;;;;;;;;5009935;28;19930;-81
2023/04/12 00:58:55;;;;;;;;;;;;;;;;;;4995802;28;19926;-82
2023/04/12 01:01:27;;;;;;;;;;;;;;;;;;4986315;28;19937;-81
2023/04/12 01:03:59;;;;;;;;;;;;;;;;;;4992777;28;19925;-82
2023/04/12 01:06:29;;;;;;;;;;;;;;;;;;4995533;28;19925;-82
2023/04/12 01:09:02;;;;;;;;;;;;;;;;;;4998560;28;19937;-82
2023/04/12 01:11:29;;;;;;;;;;;;;;;;;;4994550;28;20275;-82
2023/04/12 01:13:57;;;;;;;;;;;;;;;;;;5012110;28;19929;-82
2023/04/12 01:16:25;;;;;;;;;;;;;;;;;;5003564;28;19932;-82
2023/04/12 01:18:58;;;;;;;;;;;;;;;;;;4993741;28;19941;-83
2023/04/12 01:21:26;;;;;;;;;;;;;;;;;;4985010;28;20358;-82
2023/04/12 01:23:53;;;;;;;;;;;;;;;;;;5001669;28;19925;-82
2023/04/12 01:26:21;;;;;;;;;;;;;;;;;;5009080;28;19926;-82
2023/04/12 01:28:48;;;;;;;;;;;;;;;;;;4988160;28;19941;-82
2023/04/12 01:31:18;;;;;;;;;;;;;;;;;;5006689;28;19936;-81
2023/04/12 01:33:45;;;;;;;;;;;;;;;;;;4991364;28;20398;-82
2023/04/12 01:36:16;;;;;;;;;;;;;;;;;;4999375;28;19937;-81
2023/04/12 01:38:44;;;;;;;;;;;;;;;;;;5007877;28;19940;-81
2023/04/12 01:41:11;;;;;;;;;;;;;;;;;;4991844;28;19926;-82
2023/04/12 01:43:44;;;;;;;;;;;;;;;;;;4995709;28;19929;-82
2023/04/12 01:46:11;;;;;;;;;;;;;;;;;;4993976;28;19936;-82
2023/04/12 01:48:44;;;;;;;;;;;;;;;;;;5010538;28;19933;-83
2023/04/12 01:51:11;;;;;;;;;;;;;;;;;;5008700;28;19932;-82
2023/04/12 01:53:44;;;;;;;;;;;;;;;;;;5009594;28;19940;-82
2023/04/12 01:56:11;;;;;;;;;;;;;;;;;;4999501;28;19933;-82
2023/04/12 01:58:39;;;;;;;;;;;;;;;;;;4993366;28;20391;-82
2023/04/12 02:01:06;;;;;;;;;;;;;;;;;;5009167;28;19930;-82
2023/04/12 02:03:41;;;;;;;;;;;;;;;;;;4994646;28;20267;-81
2023/04/12 02:06:08;;;;;;;;;;;;;;;;;;4992846;28;19926;-81
2023/04/12 02:08:41;;;;;;;;;;;;;;;;;;4994812;28;19926;-83
2023/04/12 02:11:14;;;;;;;;;;;;;;;;;;4993104;28;19930;-82
2023/04/12 02:13:44;;;;;;;;;;;;;;;;;;4985982;28;19926;-82
2023/04/12 02:16:12;;;;;;;;;;;;;;;;;;5003876;28;19925;-81
2023/04/12 02:18:45;;;;;;;;;;;;;;;;;;4997191;28;19933;-82
2023/04/12 02:21:14;;;;;;;;;;;;;;;;;;4989831;28;19925;-82
2023/04/12 02:23:42;;;;;;;;;;;;;;;;;;5008316;28;19925;-83
2023/04/12 02:26:11;;;;;;;;;;;;;;;;;;5000647;28;19944;-81
2023/04/12 02:28:43;;;;;;;;;;;;;;;;;;4985862;28;19926;-81
2023/04/12 02:31:14;;;;;;;;;;;;;;;;;;4988880;28;20318;-82
2023/04/12 02:33:42;;;;;;;;;;;;;;;;;;4984450;28;20404;-82
2023/04/12 02:36:10;;;;;;;;;;;;;;;;;;5001883;28;19930;-82
2023/04/12 02:38:38;;;;;;;;;;;;;;;;;;4997625;28;20302;-83
2023/04/12 02:41:07;;;;;;;;;;;;;;;;;;5005283;28;19930;-83
2023/04/12 02:43:35;;;;;;;;;;;;;;;;;;5001212;28;19926;-82
2023/04/12 02:46:07;;;;;;;;;;;;;;;;;;5003229;28;19940;-81
2023/04/12 02:48:46;;;;;;;;;;;;;;;;;;4997629;28;21773;-82
2023/04/12 02:51:20;;;;;;;;;;;;;;;;;;4987559;28;19929;-82
2023/04/12 02:53:53;;;;;;;;;;;;;;;;;;4990974;28;19929;-81
2023/04/12 02:56:29;;;;;;;;;;;;;;;;;;5004599;28;19926;-82
2023/04/12 02:59:05;;;;;;;;;;;;;;;;;;4983188;28;20379;-82
2023/04/12 03:01:56;;;;;;;;;;;;;;;;;;4988230;28;19930;-82
2023/04/12 03:04:31;;;;;;;;;;;;;;;;;;4999881;28;19932;-82
2023/04/12 03:07:00;;;;;;;;;;;;;;;;;;4987335;28;19932;-81
2023/04/12 03:09:34;;;;;;;;;;;;;;;;;;4997183;28;19941;-80
2023/04/12 03:12:03;;;;;;;;;;;;;;;;;;5002465;28;20302;-81
2023/04/12 03:14:40;;;;;;;;;;;;;;;;;;4981299;28;19934;-82
2023/04/12 03:17:13;;;;;;;;;;;;;;;;;;4986351;28;19929;-82
2023/04/12 03:19:40;;;;;;;;;;;;;;;;;;5002500;28;20375;-83
2023/04/12 03:22:08;;;;;;;;;;;;;;;;;;4997735;28;19933;-82
2023/04/12 03:24:43;;;;;;;;;;;;;;;;;;5004339;28;19934;-80
2023/04/12 03:27:12;;;;;;;;;;;;;;;;;;4980674;28;19933;-81
2023/04/12 03:29:39;;;;;;;;;;;;;;;;;;4986696;28;19926;-82
2023/04/12 03:32:12;;;;;;;;;;;;;;;;;;4990306;28;19945;-81
2023/04/12 03:34:39;;;;;;;;;;;;;;;;;;5002469;28;19933;-83
2023/04/12 03:37:11;;;;;;;;;;;;;;;;;;4998614;28;19926;-83
2023/04/12 03:39:46;;;;;;;;;;;;;;;;;;4999049;28;20303;-83
2023/04/12 03:42:22;;;;;;;;;;;;;;;;;;4998837;28;19930;-82
2023/04/12 03:44:51;;;;;;;;;;;;;;;;;;4998833;28;19926;-82
2023/04/12 03:47:20;;;;;;;;;;;;;;;;;;5000642;28;19937;-82
2023/04/12 03:49:49;;;;;;;;;;;;;;;;;;4987220;28;19933;-82
2023/04/12 03:52:21;;;;;;;;;;;;;;;;;;5003276;28;20302;-83
2023/04/12 03:54:49;;;;;;;;;;;;;;;;;;5005599;28;19941;-82
2023/04/12 03:57:24;;;;;;;;;;;;;;;;;;4987347;28;19934;-83
2023/04/12 03:59:57;;;;;;;;;;;;;;;;;;5002485;28;19933;-82
2023/04/12 04:02:30;;;;;;;;;;;;;;;;;;4985945;28;20403;-81
2023/04/12 04:04:57;;;;;;;;;;;;;;;;;;5004176;28;19930;-83
2023/04/12 04:07:26;;;;;;;;;;;;;;;;;;5000809;28;20413;-82
2023/04/12 04:09:59;;;;;;;;;;;;;;;;;;5000232;28;19933;-82
2023/04/12 04:12:32;;;;;;;;;;;;;;;;;;5002469;28;20124;-83
2023/04/12 04:14:59;;;;;;;;;;;;;;;;;;4983933;28;19925;-82
2023/04/12 04:17:32;;;;;;;;;;;;;;;;;;5000386;28;19926;-81
2023/04/12 04:20:05;;;;;;;;;;;;;;;;;;4982779;28;19937;-82
2023/04/12 04:22:35;;;;;;;;;;;;;;;;;;4984991;28;19926;-82
2023/04/12 04:25:08;;;;;;;;;;;;;;;;;;5004233;28;19926;-82
2023/04/12 04:27:44;;;;;;;;;;;;;;;;;;4999203;28;19933;-82
2023/04/12 04:30:14;;;;;;;;;;;;;;;;;;4985925;28;19930;-83
2023/04/12 04:32:44;;;;;;;;;;;;;;;;;;5005740;28;20318;-82
2023/04/12 04:35:14;;;;;;;;;;;;;;;;;;5001199;28;19932;-82
2023/04/12 04:38:07;;;;;;;;;;;;;;;;;;4990921;28;20387;-82
2023/04/12 04:40:35;;;;;;;;;;;;;;;;;;4987187;28;19926;-82
2023/04/12 04:43:03;;;;;;;;;;;;;;;;;;5001705;28;19926;-82
2023/04/12 04:45:36;;;;;;;;;;;;;;;;;;4982358;28;21566;-82
2023/04/12 04:48:03;;;;;;;;;;;;;;;;;;4985051;28;20381;-81
2023/04/12 04:50:30;;;;;;;;;;;;;;;;;;4999260;28;20286;-82
2023/04/12 04:52:58;;;;;;;;;;;;;;;;;;4989297;28;19926;-82
2023/04/12 04:55:32;;;;;;;;;;;;;;;;;;4993809;28;20302;-81
2023/04/12 04:58:00;;;;;;;;;;;;;;;;;;4987104;28;19933;-80
2023/04/12 05:00:27;;;;;;;;;;;;;;;;;;4991117;28;19926;-82
2023/04/12 05:03:01;;;;;;;;;;;;;;;;;;4984179;28;20283;-81
2023/04/12 05:05:29;;;;;;;;;;;;;;;;;;5003312;28;19929;-82
2023/04/12 05:08:03;;;;;;;;;;;;;;;;;;5002850;28;19952;-83
2023/04/12 05:10:36;;;;;;;;;;;;;;;;;;5004366;28;19926;-82
2023/04/12 05:13:03;;;;;;;;;;;;;;;;;;4985316;28;19929;-81
2023/04/12 05:15:36;;;;;;;;;;;;;;;;;;4985252;28;19926;-81
2023/04/12 05:18:08;;;;;;;;;;;;;;;;;;5004720;28;19930;-82
2023/04/12 05:20:41;;;;;;;;;;;;;;;;;;5006508;28;20379;-83
2023/04/12 05:23:09;;;;;;;;;;;;;;;;;;5000745;28;19930;-82
2023/04/12 05:25:42;;;;;;;;;;;;;;;;;;4991178;28;20013;-82
2023/04/12 05:28:13;;;;;;;;;;;;;;;;;;5004433;28;19933;-82
2023/04/12 05:30:45;;;;;;;;;;;;;;;;;;5001566;28;19933;-81
2023/04/12 05:33:16;;;;;;;;;;;;;;;;;;5002521;28;19948;-82
2023/04/12 05:35:46;;;;;;;;;;;;;;;;;;5000479;28;19934;-82
2023/04/12 05:38:18;;;;;;;;;;;;;;;;;;4995546;28;19925;-82
2023/04/12 05:40:50;;;;;;;;;;;;;;;;;;4992390;28;19934;-82
2023/04/12 05:43:22;;;;;;;;;;;;;;;;;;4993164;28;20379;-83
2023/04/12 05:45:49;;;;;;;;;;;;;;;;;;4993359;28;19949;-83
2023/04/12 05:48:20;;;;;;;;;;;;;;;;;;4994160;28;19926;-82
2023/04/12 05:50:57;;;;;;;;;;;;;;;;;;4985672;28;20390;-84
2023/04/12 05:53:31;;;;;;;;;;;;;;;;;;4991820;28;19930;-83
2023/04/12 05:56:02;;;;;;;;;;;;;;;;;;4991803;28;20314;-82
2023/04/12 05:58:29;;;;;;;;;;;;;;;;;;4992345;28;20382;-83
2023/04/12 06:00:58;;;;;;;;;;;;;;;;;;4987002;28;19926;-80
2023/04/12 06:03:28;;;;;;;;;;;;;;;;;;5002408;28;19926;-83
2023/04/12 06:06:01;;;;;;;;;;;;;;;;;;5000861;28;19925;-84
2023/04/12 06:08:29;;;;;;;;;;;;;;;;;;4986103;28;19929;-82
2023/04/12 06:11:02;;;;;;;;;;;;;;;;;;5002643;28;19957;-83
2023/04/12 06:13:30;;;;;;;;;;;;;;;;;;4991415;28;19930;-84
2023/04/12 06:15:57;;;;;;;;;;;;;;;;;;4999590;28;19929;-87
2023/04/12 06:18:29;;;;;;;;;;;;;;;;;;4984743;28;19949;-82
2023/04/12 06:20:57;;;;;;;;;;;;;;;;;;5001291;28;19929;-83
2023/04/12 06:23:25;;;;;;;;;;;;;;;;;;5005983;28;19937;-83
2023/04/12 06:25:57;;;;;;;;;;;;;;;;;;5000728;28;19929;-84
2023/04/12 06:28:30;;;;;;;;;;;;;;;;;;5008033;28;20256;-80
2023/04/12 06:31:02;;;;;;;;;;;;;;;;;;5005592;28;19932;-85
2023/04/12 06:33:38;;;;;;;;;;;;;;;;;;4984003;28;20414;-84
2023/04/12 06:36:08;;;;;;;;;;;;;;;;;;5004509;28;19930;-83
2023/04/12 06:38:35;;;;;;;;;;;;;;;;;;4983208;28;19933;-83
2023/04/12 06:41:03;;;;;;;;;;;;;;;;;;5005957;28;19926;-84
2023/04/12 06:43:31;;;;;;;;;;;;;;;;;;4989371;28;19936;-83
2023/04/12 06:45:58;;;;;;;;;;;;;;;;;;4981994;28;19926;-83
2023/04/12 06:48:26;;;;;;;;;;;;;;;;;;4989285;28;20245;-85
2023/04/12 06:50:53;;;;;;;;;;;;;;;;;;4990575;28;19926;-85
2023/04/12 06:53:26;;;;;;;;;;;;;;;;;;4985292;28;20295;-84
2023/04/12 06:55:53;;;;;;;;;;;;;;;;;;4992373;28;20393;-83
2023/04/12 06:58:26;;;;;;;;;;;;;;;;;;5006982;28;19933;-85
2023/04/12 07:00:53;;;;;;;;;;;;;;;;;;5000325;28;19926;-85
2023/04/12 07:03:28;;;;;;;;;;;;;;;;;;4990496;28;19930;-89
2023/04/12 07:05:55;;;;;;;;;;;;;;;;;;4988173;28;20382;-85
2023/04/12 07:08:23;;;;;;;;;;;;;;;;;;4985634;28;20977;-88
2023/04/12 07:10:50;;;;;;;;;;;;;;;;;;4984082;28;20291;-86
2023/04/12 07:13:23;;;;;;;;;;;;;;;;;;4994723;28;20414;-85
2023/04/12 07:15:56;;;;;;;;;;;;;;;;;;4983724;28;20306;-86
2023/04/12 07:18:24;;;;;;;;;;;;;;;;;;4964726;28;19944;-80
2023/04/12 07:20:51;;;;;;;;;;;;;;;;;;4962004;28;19945;-82
2023/04/12 07:23:19;;;;;;;;;;;;;;;;;;4962637;28;19941;-82
2023/04/12 07:25:51;;;;;;;;;;;;;;;;;;4973255;28;19934;-83
2023/04/12 07:28:19;;;;;;;;;;;;;;;;;;4962804;28;19952;-82
2023/04/12 07:30:46;;;;;;;;;;;;;;;;;;4978590;28;19934;-85
2023/04/12 07:33:19;;;;;;;;;;;;;;;;;;4976996;28;19941;-83
2023/04/12 07:35:46;;;;;;;;;;;;;;;;;;4966983;28;19935;-80
2023/04/12 07:38:14;;;;;;;;;;;;;;;;;;4968315;28;20428;-82
2023/04/12 07:40:46;;;;;;;;;;;;;;;;;;4965794;28;20361;-81
2023/04/12 07:43:20;;;;;;;;;;;;;;;;;;4987768;28;19941;-81
2023/04/12 07:45:47;;;;;;;;;;;;;;;;;;4961345;28;19933;-83
2023/04/12 07:48:20;;;;;;;;;;;;;;;;;;4959228;28;19934;-88
2023/04/12 07:50:52;;;;;;;;;;;;;;;;;;4974283;28;19937;-86
2023/04/12 07:53:20;;;;;;;;;;;;;;;;;;4961232;28;19963;-83
2023/04/12 07:55:52;;;;;;;;;;;;;;;;;;4974801;28;19934;-82
2023/04/12 07:58:20;;;;;;;;;;;;;;;;;;4964465;28;19942;-84
2023/04/12 08:00:47;;;;;;;;;;;;;;;;;;4971689;28;19949;-85
2023/04/12 08:03:15;;;;;;;;;;;;;;;;;;4975341;28;19941;-83
2023/04/12 08:05:52;;;;;;;;;;;;;;;;;;4961084;28;19940;-84
2023/04/12 08:08:24;;;;;;;;;;;;;;;;;;4966798;28;19933;-84
2023/04/12 08:10:52;;;;;;;;;;;;;;;;;;4959484;28;19934;-82
2023/04/12 08:13:24;;;;;;;;;;;;;;;;;;4977551;28;19941;-82
2023/04/12 08:15:57;;;;;;;;;;;;;;;;;;4964309;28;20002;-84
2023/04/12 08:18:29;;;;;;;;;;;;;;;;;;4962872;28;19941;-82
2023/04/12 08:21:02;;;;;;;;;;;;;;;;;;4979099;28;19933;-81
2023/04/12 08:23:30;;;;;;;;;;;;;;;;;;4961558;28;19933;-83
2023/04/12 08:26:03;;;;;;;;;;;;;;;;;;4964286;28;19934;-83
2023/04/12 08:28:31;;;;;;;;;;;;;;;;;;4984254;28;19934;-83
2023/04/12 08:30:58;;;;;;;;;;;;;;;;;;4983542;28;19949;-81
2023/04/12 08:33:31;;;;;;;;;;;;;;;;;;4984137;28;19933;-81
2023/04/12 08:36:03;;;;;;;;;;;;;;;;;;4974087;28;19934;-83
2023/04/12 08:38:31;;;;;;;;;;;;;;;;;;4972249;28;19940;-85
2023/04/12 08:41:02;;;;;;;;;;;;;;;;;;4986467;28;19934;-83
2023/04/12 08:43:34;;;;;;;;;;;;;;;;;;4985705;28;20478;-81
2023/04/12 08:46:02;;;;;;;;;;;;;;;;;;4972149;28;19940;-83
2023/04/12 08:48:29;;;;;;;;;;;;;;;;;;4973269;28;21793;-83
2023/04/12 08:50:57;;;;;;;;;;;;;;;;;;4964359;28;20017;-87
2023/04/12 08:53:24;;;;;;;;;;;;;;;;;;4973508;28;19940;-80
2023/04/12 08:55:52;;;;;;;;;;;;;;;;;;4985452;28;20795;-85
2023/04/12 08:58:24;;;;;;;;;;;;;;;;;;4967854;28;19930;-87
2023/04/12 09:00:52;;;;;;;;;;;;;;;;;;4970537;28;19937;-82
2023/04/12 09:03:20;;;;;;;;;;;;;;;;;;4966040;28;20425;-81
2023/04/12 09:05:47;;;;;;;;;;;;;;;;;;4966865;28;19932;-86
2023/04/12 09:08:16;;;;;;;;;;;;;;;;;;4970539;28;19974;-83
2023/04/12 09:10:43;;;;;;;;;;;;;;;;;;4969339;28;19944;-84
2023/04/12 09:13:11;;;;;;;;;;;;;;;;;;4981513;28;21212;-83
2023/04/12 09:15:38;;;;;;;;;;;;;;;;;;4980665;28;20007;-81
2023/04/12 09:18:06;;;;;;;;;;;;;;;;;;4984706;28;19934;-82
2023/04/12 09:20:33;;;;;;;;;;;;;;;;;;4967153;28;19933;-80
2023/04/12 09:23:06;;;;;;;;;;;;;;;;;;4980869;28;19930;-81
2023/04/12 09:25:33;;;;;;;;;;;;;;;;;;4966639;28;19934;-80
2023/04/12 09:28:06;;;;;;;;;;;;;;;;;;4984903;28;19934;-82
2023/04/12 09:30:34;;;;;;;;;;;;;;;;;;4971063;28;20417;-83
2023/04/12 09:33:01;;;;;;;;;;;;;;;;;;4989743;28;19934;-85
2023/04/12 09:35:34;;;;;;;;;;;;;;;;;;4983336;28;20677;-87
2023/04/12 09:38:02;;;;;;;;;;;;;;;;;;4973396;28;19934;-83
2023/04/12 09:40:35;;;;;;;;;;;;;;;;;;4974144;28;19941;-81
2023/04/12 09:43:07;;;;;;;;;;;;;;;;;;4985205;28;19929;-83
2023/04/12 09:45:37;;;;;;;;;;;;;;;;;;4973636;28;19936;-85
2023/04/12 09:48:05;;;;;;;;;;;;;;;;;;4972015;28;19934;-82
2023/04/12 09:50:33;;;;;;;;;;;;;;;;;;4980203;28;19934;-82
2023/04/12 09:53:00;;;;;;;;;;;;;;;;;;4978697;28;19933;-82
2023/04/12 09:55:28;;;;;;;;;;;;;;;;;;4974630;28;19933;-84
2023/04/12 09:57:55;;;;;;;;;;;;;;;;;;4962826;28;19941;-80
2023/04/12 10:00:28;;;;;;;;;;;;;;;;;;4977527;28;19933;-82
2023/04/12 10:02:55;;;;;;;;;;;;;;;;;;4962714;28;19933;-82
2023/04/12 10:05:24;;;;;;;;;;;;;;;;;;4984451;28;19934;-84
2023/04/12 10:07:51;;;;;;;;;;;;;;;;;;4972436;28;19941;-86
2023/04/12 10:10:27;;;;;;;;;;;;;;;;;;4988574;28;19933;-84
2023/04/12 10:13:00;;;;;;;;;;;;;;;;;;4975996;28;19941;-80
2023/04/12 10:15:27;;;;;;;;;;;;;;;;;;4964635;28;19944;-84
2023/04/12 10:18:03;;;;;;;;;;;;;;;;;;4985460;28;19944;-85
2023/04/12 10:20:36;;;;;;;;;;;;;;;;;;4987940;28;20490;-85
2023/04/12 10:23:04;;;;;;;;;;;;;;;;;;4995202;28;19941;-85
2023/04/12 10:25:32;;;;;;;;;;;;;;;;;;4985081;28;19934;-86
2023/04/12 10:27:59;;;;;;;;;;;;;;;;;;4972451;28;19940;-79
2023/04/12 10:30:27;;;;;;;;;;;;;;;;;;4987382;28;19934;-83
2023/04/12 10:32:54;;;;;;;;;;;;;;;;;;4976259;28;20618;-87
2023/04/12 10:35:22;;;;;;;;;;;;;;;;;;4972344;28;19934;-83
2023/04/12 10:37:50;;;;;;;;;;;;;;;;;;4988241;28;20282;-83
2023/04/12 10:40:22;;;;;;;;;;;;;;;;;;4976380;28;19929;-87
2023/04/12 10:42:49;;;;;;;;;;;;;;;;;;4970107;28;19988;-85
2023/04/12 10:45:17;;;;;;;;;;;;;;;;;;4974784;28;19944;-81
2023/04/12 10:47:49;;;;;;;;;;;;;;;;;;4983096;28;20304;-88
2023/04/12 10:50:23;;;;;;;;;;;;;;;;;;4971056;28;19934;-83
2023/04/12 10:52:50;;;;;;;;;;;;;;;;;;4970536;28;19941;-81
2023/04/12 10:55:23;;;;;;;;;;;;;;;;;;4980978;28;19945;-84
2023/04/12 10:57:53;;;;;;;;;;;;;;;;;;4968519;28;19949;-80
2023/04/12 11:00:20;;;;;;;;;;;;;;;;;;4974061;28;19944;-81
2023/04/12 11:02:53;;;;;;;;;;;;;;;;;;4974435;28;19930;-80
2023/04/12 11:05:25;;;;;;;;;;;;;;;;;;4969583;28;19933;-82
2023/04/12 11:08:00;;;;;;;;;;;;;;;;;;4987471;28;19941;-86
2023/04/12 11:10:49;;;;;;;;;;;;;;;;;;4988626;28;19930;-81
2023/04/12 11:13:29;;;;;;;;;;;;;;;;;;4986428;28;20375;-81
2023/04/12 11:16:01;;;;;;;;;;;;;;;;;;4980025;28;19941;-84
2023/04/12 11:18:29;;;;;;;;;;;;;;;;;;4952792;28;20417;-86
2023/04/12 11:20:56;;;;;;;;;;;;;;;;;;4963485;28;19933;-82
2023/04/12 11:23:24;;;;;;;;;;;;;;;;;;4973535;28;19988;-84
2023/04/12 11:25:52;;;;;;;;;;;;;;;;;;4967635;28;19933;-81
2023/04/12 11:28:21;;;;;;;;;;;;;;;;;;4975108;28;19952;-79
2023/04/12 11:30:49;;;;;;;;;;;;;;;;;;4961108;28;19925;-86
2023/04/12 11:33:17;;;;;;;;;;;;;;;;;;4961968;28;19933;-82
2023/04/12 11:35:44;;;;;;;;;;;;;;;;;;4972475;28;19934;-84
2023/04/12 11:38:11;;;;;;;;;;;;;;;;;;4962389;28;19945;-80
2023/04/12 11:40:39;;;;;;;;;;;;;;;;;;4968284;28;19934;-81
2023/04/12 11:43:11;;;;;;;;;;;;;;;;;;4964225;28;19934;-80
2023/04/12 11:45:39;;;;;;;;;;;;;;;;;;4984899;28;19934;-81
2023/04/12 11:48:07;;;;;;;;;;;;;;;;;;4971417;28;19941;-80
2023/04/12 11:50:36;;;;;;;;;;;;;;;;;;4964871;28;19933;-87
2023/04/12 11:53:04;;;;;;;;;;;;;;;;;;4979530;28;19934;-82
2023/04/12 11:55:31;;;;;;;;;;;;;;;;;;4969895;28;20626;-83
2023/04/12 11:57:59;;;;;;;;;;;;;;;;;;4971056;28;19925;-82
2023/04/12 12:00:31;;;;;;;;;;;;;;;;;;4984369;28;20739;-83
2023/04/12 12:02:59;;;;;;;;;;;;;;;;;;4996181;28;20283;-80
2023/04/12 12:05:35;;;;;;;;;;;;;;;;;;4970620;28;19930;-80
2023/04/12 12:08:07;;;;;;;;;;;;;;;;;;4989710;28;19940;-81
2023/04/12 12:10:40;;;;;;;;;;;;;;;;;;4985954;28;19940;-81
2023/04/12 12:13:12;;;;;;;;;;;;;;;;;;4972042;28;19956;-82
2023/04/12 12:15:40;;;;;;;;;;;;;;;;;;4968338;28;19926;-82
2023/04/12 12:18:08;;;;;;;;;;;;;;;;;;4962660;28;19930;-78
2023/04/12 12:20:35;;;;;;;;;;;;;;;;;;4975898;28;19937;-85
2023/04/12 12:23:03;;;;;;;;;;;;;;;;;;4968061;28;19944;-82
2023/04/12 12:25:35;;;;;;;;;;;;;;;;;;4983215;28;19940;-83
2023/04/12 12:28:04;;;;;;;;;;;;;;;;;;4977750;28;19941;-83
2023/04/12 12:30:32;;;;;;;;;;;;;;;;;;4988074;28;19940;-80
2023/04/12 12:33:04;;;;;;;;;;;;;;;;;;4982500;28;19941;-83
2023/04/12 12:35:32;;;;;;;;;;;;;;;;;;4975395;28;19934;-85
2023/04/12 12:37:59;;;;;;;;;;;;;;;;;;4977799;28;19937;-83
2023/04/12 12:40:28;;;;;;;;;;;;;;;;;;4965104;28;19940;-80
2023/04/12 12:43:00;;;;;;;;;;;;;;;;;;4969145;28;20786;-82
2023/04/12 12:45:33;;;;;;;;;;;;;;;;;;4984020;28;20535;-85
2023/04/12 12:48:01;;;;;;;;;;;;;;;;;;4978879;28;19934;-83
2023/04/12 12:50:28;;;;;;;;;;;;;;;;;;4966227;28;19933;-83
2023/04/12 12:52:56;;;;;;;;;;;;;;;;;;4967332;28;19953;-84
2023/04/12 12:55:23;;;;;;;;;;;;;;;;;;4983995;28;19932;-81
2023/04/12 12:57:51;;;;;;;;;;;;;;;;;;4979682;28;19933;-83
2023/04/12 13:00:24;;;;;;;;;;;;;;;;;;4987581;28;19933;-81
2023/04/12 13:02:52;;;;;;;;;;;;;;;;;;4974871;28;19933;-81
2023/04/12 13:05:24;;;;;;;;;;;;;;;;;;4987265;28;19941;-85
2023/04/12 13:07:52;;;;;;;;;;;;;;;;;;4987552;28;19948;-85
2023/04/12 13:10:19;;;;;;;;;;;;;;;;;;4971527;28;19940;-82
2023/04/12 13:12:47;;;;;;;;;;;;;;;;;;4977001;28;19934;-83
2023/04/12 13:15:15;;;;;;;;;;;;;;;;;;4979172;28;19940;-80
2023/04/12 13:17:42;;;;;;;;;;;;;;;;;;4957727;28;20379;-81
2023/04/12 13:20:10;;;;;;;;;;;;;;;;;;4985011;28;19940;-83
2023/04/12 13:22:37;;;;;;;;;;;;;;;;;;4991846;28;20670;-83
2023/04/12 13:25:05;;;;;;;;;;;;;;;;;;4974534;28;19934;-83
2023/04/12 13:27:38;;;;;;;;;;;;;;;;;;4996754;28;19948;-82
2023/04/12 13:30:05;;;;;;;;;;;;;;;;;;4983214;28;19933;-84
2023/04/12 13:32:33;;;;;;;;;;;;;;;;;;4984809;28;19930;-85
2023/04/12 13:35:00;;;;;;;;;;;;;;;;;;4993593;28;19941;-81
2023/04/12 13:37:33;;;;;;;;;;;;;;;;;;4978356;28;19940;-81
2023/04/12 13:40:00;;;;;;;;;;;;;;;;;;4978953;28;19934;-82
2023/04/12 13:42:33;;;;;;;;;;;;;;;;;;4988271;28;19949;-83
2023/04/12 13:45:06;;;;;;;;;;;;;;;;;;4977672;28;19960;-81
2023/04/12 13:47:34;;;;;;;;;;;;;;;;;;4992386;28;19956;-81
2023/04/12 13:50:01;;;;;;;;;;;;;;;;;;4974058;28;19925;-83
2023/04/12 13:52:29;;;;;;;;;;;;;;;;;;4992088;28;19933;-82
2023/04/12 13:54:57;;;;;;;;;;;;;;;;;;4991834;28;19929;-81
2023/04/12 13:57:24;;;;;;;;;;;;;;;;;;4972177;28;19934;-83
2023/04/12 13:59:52;;;;;;;;;;;;;;;;;;4991137;28;20757;-83
2023/04/12 14:02:19;;;;;;;;;;;;;;;;;;4970847;28;19934;-82
2023/04/12 14:04:47;;;;;;;;;;;;;;;;;;4972173;28;19941;-82
2023/04/12 14:07:15;;;;;;;;;;;;;;;;;;4976591;28;19933;-81
2023/04/12 14:09:47;;;;;;;;;;;;;;;;;;4993184;28;20017;-81
2023/04/12 14:12:15;;;;;;;;;;;;;;;;;;4995527;28;19944;-83
2023/04/12 14:14:42;;;;;;;;;;;;;;;;;;4995057;28;19941;-83
2023/04/12 14:17:15;;;;;;;;;;;;;;;;;;4990047;28;19941;-82
2023/04/12 14:19:42;;;;;;;;;;;;;;;;;;5001176;28;19926;-82
2023/04/12 14:22:10;;;;;;;;;;;;;;;;;;4991315;28;19933;-86
2023/04/12 14:24:38;;;;;;;;;;;;;;;;;;4993994;28;20295;-84
2023/04/12 14:27:06;;;;;;;;;;;;;;;;;;5005723;28;19926;-86
2023/04/12 14:29:34;;;;;;;;;;;;;;;;;;4993992;28;19937;-84
2023/04/12 14:32:01;;;;;;;;;;;;;;;;;;4990292;28;20374;-84
2023/04/12 14:34:29;;;;;;;;;;;;;;;;;;4992926;28;19930;-86
2023/04/12 14:36:59;;;;;;;;;;;;;;;;;;4989497;28;19936;-83
2023/04/12 14:39:26;;;;;;;;;;;;;;;;;;5006757;28;19941;-82
2023/04/12 14:41:55;;;;;;;;;;;;;;;;;;4989046;28;20279;-81
2023/04/12 14:44:23;;;;;;;;;;;;;;;;;;4987231;28;19925;-84
2023/04/12 14:46:55;;;;;;;;;;;;;;;;;;4988624;28;19926;-79
2023/04/12 14:49:30;;;;;;;;;;;;;;;;;;4983606;28;19929;-82
2023/04/12 14:51:58;;;;;;;;;;;;;;;;;;4990117;28;19933;-81
2023/04/12 14:54:26;;;;;;;;;;;;;;;;;;4990524;28;19945;-80
2023/04/12 14:56:53;;;;;;;;;;;;;;;;;;4990094;28;19940;-81
2023/04/12 14:59:26;;;;;;;;;;;;;;;;;;4989814;28;19949;-81
2023/04/12 15:01:54;;;;;;;;;;;;;;;;;;4988378;28;19936;-81
2023/04/12 15:04:26;;;;;;;;;;;;;;;;;;4988968;28;19934;-81
2023/04/12 15:06:59;;;;;;;;;;;;;;;;;;4983638;28;19941;-81
2023/04/12 15:09:27;;;;;;;;;;;;;;;;;;4999400;28;19937;-81
2023/04/12 15:11:59;;;;;;;;;;;;;;;;;;5000434;28;19936;-82
2023/04/12 15:14:27;;;;;;;;;;;;;;;;;;4988339;28;19937;-82
2023/04/12 15:17:00;;;;;;;;;;;;;;;;;;4983585;28;19940;-81
2023/04/12 15:19:28;;;;;;;;;;;;;;;;;;4999136;28;19933;-83
2023/04/12 15:21:55;;;;;;;;;;;;;;;;;;4998391;28;19933;-82
2023/04/12 15:24:29;;;;;;;;;;;;;;;;;;4998254;28;19930;-82
2023/04/12 15:26:57;;;;;;;;;;;;;;;;;;5003126;28;19930;-82
2023/04/12 15:29:29;;;;;;;;;;;;;;;;;;5002555;28;19930;-81
2023/04/12 15:31:57;;;;;;;;;;;;;;;;;;4987676;28;19945;-81
2023/04/12 15:34:27;;;;;;;;;;;;;;;;;;4995826;28;19930;-82
2023/04/12 15:36:54;;;;;;;;;;;;;;;;;;5001165;28;19937;-83
2023/04/12 15:39:22;;;;;;;;;;;;;;;;;;4985973;28;19934;-82
2023/04/12 15:41:50;;;;;;;;;;;;;;;;;;5000255;28;20401;-82
2023/04/12 15:44:23;;;;;;;;;;;;;;;;;;4988255;28;19926;-82
2023/04/12 15:46:51;;;;;;;;;;;;;;;;;;4990006;28;19930;-82
2023/04/12 15:49:18;;;;;;;;;;;;;;;;;;4989849;28;19933;-82
2023/04/12 15:51:46;;;;;;;;;;;;;;;;;;4990943;28;19930;-82
2023/04/12 15:54:14;;;;;;;;;;;;;;;;;;4997567;28;20401;-82
2023/04/12 15:56:44;;;;;;;;;;;;;;;;;;4987648;28;20390;-83
2023/04/12 15:59:11;;;;;;;;;;;;;;;;;;4987634;28;20382;-82
2023/04/12 16:01:38;;;;;;;;;;;;;;;;;;5006914;28;19930;-82
2023/04/12 16:04:06;;;;;;;;;;;;;;;;;;5004724;28;19926;-83
2023/04/12 16:06:34;;;;;;;;;;;;;;;;;;5009454;28;20405;-82
2023/04/12 16:09:03;;;;;;;;;;;;;;;;;;4991383;28;19926;-83
2023/04/12 16:11:32;;;;;;;;;;;;;;;;;;5006686;28;19926;-83
2023/04/12 16:14:00;;;;;;;;;;;;;;;;;;4989391;28;20405;-82
2023/04/12 16:16:27;;;;;;;;;;;;;;;;;;4993861;28;19930;-83
2023/04/12 16:18:55;;;;;;;;;;;;;;;;;;5003716;28;19930;-82
2023/04/12 16:21:25;;;;;;;;;;;;;;;;;;5003522;28;20261;-82
2023/04/12 16:23:58;;;;;;;;;;;;;;;;;;5007735;28;19929;-83
2023/04/12 16:26:30;;;;;;;;;;;;;;;;;;4991398;28;19948;-83
2023/04/12 16:29:00;;;;;;;;;;;;;;;;;;4993076;28;19929;-83
2023/04/12 16:31:28;;;;;;;;;;;;;;;;;;4987914;28;19926;-84
2023/04/12 16:33:55;;;;;;;;;;;;;;;;;;4987892;28;19933;-83
2023/04/12 16:36:25;;;;;;;;;;;;;;;;;;4990013;28;19926;-83
2023/04/12 16:38:54;;;;;;;;;;;;;;;;;;4999780;28;20283;-84
2023/04/12 16:41:21;;;;;;;;;;;;;;;;;;5003148;28;20002;-83
2023/04/12 16:43:51;;;;;;;;;;;;;;;;;;4991696;28;20263;-83
2023/04/12 16:46:19;;;;;;;;;;;;;;;;;;5007295;28;20294;-83
2023/04/12 16:48:52;;;;;;;;;;;;;;;;;;4994701;28;20387;-83
2023/04/12 16:51:19;;;;;;;;;;;;;;;;;;4993472;28;19929;-83
2023/04/12 16:53:47;;;;;;;;;;;;;;;;;;4994734;28;19926;-84
2023/04/12 16:56:15;;;;;;;;;;;;;;;;;;4991443;28;19930;-83
2023/04/12 16:58:43;;;;;;;;;;;;;;;;;;5003157;28;19933;-83
2023/04/12 17:01:15;;;;;;;;;;;;;;;;;;4997002;28;19929;-84
2023/04/12 17:03:47;;;;;;;;;;;;;;;;;;5009105;28;19930;-84